Terminal Aerodrome Forecast
Issued by NWS Wilmington, OH

Current Version | Previous Version | Graphics & Text | Print | Product List | Glossary On
Versions: 1 2 3 4 5 6 7 8 9 10 11 12 13 14 15 16 17 18 19 20 21 22 23 24 25 26 27
000
FTUS41 KILN 252000 AAA
TAFCVG
TAF AMD
KCVG 252056Z 2521/2624 19008KT P6SM BKN022 OVC029
     FM260100 18006KT P6SM SCT200
     FM261500 20010G20KT P6SM SCT200=

USA.gov is the U.S. government's official web portal to all federal, state and local government web resources and services.